Terminal Aerodrome Forecast
Issued by NWS Quad Cities IA IL

Home | Current Version | Previous Version | Text Only | Print | Product List | Glossary On
Versions: 1 2 3 4 5 6 7 8 9 10 11 12 13 14 15
000
FTUS43 KDVN 221733
TAFDBQ
TAF
KDBQ 221733Z 2218/2318 30020G30KT P6SM BKN050
     FM222300 30012KT P6SM FEW060
     FM230100 29006KT P6SM SKC
     FM231400 32010KT P6SM SKC=

USA.gov is the U.S. government's official web portal to all federal, state and local government web resources and services.